createdAt,value
2022-10-15T00:05:10.743Z,15.62
2022-10-15T00:10:42.456Z,15.60
2022-10-15T00:16:14.315Z,15.50
2022-10-15T00:21:46.407Z,15.48
2022-10-15T00:27:18.141Z,15.40
2022-10-15T00:32:49.753Z,15.39
2022-10-15T00:38:21.475Z,15.39
2022-10-15T00:46:15.193Z,15.39
2022-10-15T00:51:46.837Z,15.46
2022-10-15T00:57:18.550Z,15.48
2022-10-15T01:13:48.921Z,15.40
2022-10-15T01:19:20.275Z,15.44
2022-10-15T01:24:52.370Z,15.46
2022-10-15T01:30:24.114Z,15.53
2022-10-15T01:35:56.010Z,15.53
2022-10-15T01:41:27.868Z,15.51
2022-10-15T01:46:59.699Z,15.56
2022-10-15T01:58:03.482Z,15.58
2022-10-15T02:03:35.351Z,15.60
2022-10-15T02:11:29.181Z,15.62
2022-10-15T02:17:01.286Z,15.64
2022-10-15T02:22:34.468Z,15.65
2022-10-15T02:28:06.214Z,15.64
2022-10-15T02:33:37.933Z,15.62
2022-10-15T02:39:09.611Z,15.62
2022-10-15T02:44:41.519Z,15.67
2022-10-15T02:50:13.211Z,15.68
2022-10-15T02:55:45.016Z,15.67
2022-10-15T03:01:16.967Z,15.71
2022-10-15T03:06:48.619Z,15.74
2022-10-15T03:17:52.275Z,15.84
2022-10-15T03:23:24.500Z,15.82
2022-10-15T03:28:56.139Z,15.84
2022-10-15T03:31:19.376Z,0.00
2022-10-15T03:36:51.141Z,15.92
2022-10-15T03:42:23.152Z,15.93
2022-10-15T03:47:54.904Z,15.95
2022-10-15T03:53:26.619Z,15.97
2022-10-15T03:58:58.574Z,15.97
2022-10-15T04:04:30.039Z,16.00
2022-10-15T04:10:02.044Z,16.08
2022-10-15T04:15:33.819Z,16.09
2022-10-15T04:21:05.566Z,16.10
2022-10-15T04:26:37.511Z,16.10
2022-10-15T04:32:09.257Z,16.16
2022-10-15T04:37:41.059Z,16.15
2022-10-15T04:43:13.269Z,16.17
2022-10-15T04:48:44.894Z,16.19
2022-10-15T04:54:17.025Z,16.24
2022-10-15T04:59:51.445Z,16.26
2022-10-15T05:05:20.337Z,16.30
2022-10-15T05:10:52.107Z,16.31
2022-10-15T05:16:24.022Z,16.36
2022-10-15T05:21:55.630Z,16.40
2022-10-15T05:27:27.515Z,16.44
2022-10-15T05:32:59.501Z,16.44
2022-10-15T05:38:31.247Z,16.50
2022-10-15T05:44:03.180Z,16.51
2022-10-15T05:49:34.799Z,16.54
2022-10-15T05:55:06.494Z,16.55
2022-10-15T06:00:38.236Z,16.59
2022-10-15T06:06:09.778Z,16.64
2022-10-15T06:11:41.709Z,16.65
2022-10-15T06:17:13.441Z,16.65
2022-10-15T06:22:45.406Z,16.69
2022-10-15T06:28:17.040Z,16.71
2022-10-15T06:33:48.797Z,16.74
2022-10-15T06:39:20.421Z,16.74
2022-10-15T06:44:52.419Z,16.80
2022-10-15T06:50:24.391Z,16.85
2022-10-15T06:55:56.221Z,16.99
2022-10-15T07:01:28.044Z,17.01
2022-10-15T07:06:59.666Z,17.12
2022-10-15T07:12:31.753Z,17.22
2022-10-15T07:18:03.413Z,17.34
2022-10-15T07:23:35.020Z,17.41
2022-10-15T07:29:06.618Z,17.58
2022-10-15T07:34:38.320Z,17.65
2022-10-15T07:40:10.276Z,17.75
2022-10-15T07:45:42.056Z,17.81
2022-10-15T07:51:13.863Z,17.96
2022-10-15T07:56:45.222Z,18.03
2022-10-15T08:02:16.998Z,18.10
2022-10-15T08:13:18.006Z,18.34
2022-10-15T08:18:49.732Z,18.46
2022-10-15T08:24:21.499Z,18.50
2022-10-15T08:29:53.206Z,18.48
2022-10-15T08:35:25.054Z,18.51
2022-10-15T08:40:56.742Z,18.57
2022-10-15T08:46:28.618Z,18.65
2022-10-15T08:52:00.298Z,18.74
2022-10-15T09:03:03.752Z,18.55
2022-10-15T09:08:36.017Z,18.51
2022-10-15T09:14:10.272Z,18.38
2022-10-15T09:36:19.834Z,18.52
2022-10-15T09:41:51.397Z,18.62
2022-10-15T09:47:23.378Z,19.00
2022-10-15T09:52:55.109Z,19.35
2022-10-15T09:58:26.911Z,20.24
2022-10-15T10:09:30.309Z,21.21
2022-10-15T10:20:34.426Z,21.83
2022-10-15T10:26:06.069Z,22.10
2022-10-15T10:31:37.918Z,22.65
2022-10-15T10:37:09.707Z,22.83
2022-10-15T10:42:41.356Z,23.06
2022-10-15T10:48:13.184Z,23.14
2022-10-15T10:53:44.985Z,23.34
2022-10-15T10:59:16.902Z,23.37
2022-10-15T11:07:09.089Z,0.00
2022-10-15T11:12:40.966Z,23.86
2022-10-15T11:18:13.023Z,24.02
2022-10-15T11:23:45.031Z,24.30
2022-10-15T11:29:16.732Z,24.25
2022-10-15T11:34:48.622Z,24.13
2022-10-15T11:40:20.511Z,24.00
2022-10-15T11:45:52.283Z,23.84
2022-10-15T11:51:23.590Z,23.74
2022-10-15T11:56:55.211Z,23.74
2022-10-15T12:02:27.061Z,23.74
2022-10-15T12:07:58.976Z,23.77
2022-10-15T12:13:30.355Z,23.78
2022-10-15T12:19:02.508Z,23.84
2022-10-15T12:24:34.415Z,23.65
2022-10-15T12:30:06.267Z,23.37
2022-10-15T12:35:38.273Z,23.33
2022-10-15T12:41:09.821Z,23.31
2022-10-15T12:46:41.508Z,23.23
2022-10-15T12:52:13.562Z,22.80
2022-10-15T12:57:45.080Z,22.64
2022-10-15T13:03:16.764Z,22.44
2022-10-15T13:08:48.284Z,22.48
2022-10-15T13:14:19.910Z,22.75
2022-10-15T13:19:51.321Z,22.88
2022-10-15T13:25:23.413Z,23.00
2022-10-15T13:30:56.349Z,23.06
2022-10-15T13:36:28.265Z,23.12
2022-10-15T13:41:59.902Z,23.10
2022-10-15T13:47:33.492Z,22.86
2022-10-15T13:53:05.172Z,22.83
2022-10-15T13:58:36.754Z,22.80
2022-10-15T14:04:08.864Z,22.85
2022-10-15T14:09:40.626Z,22.88
2022-10-15T14:15:17.821Z,22.88
2022-10-15T14:20:51.433Z,22.89
2022-10-15T14:26:22.852Z,22.79
2022-10-15T14:31:54.551Z,22.69
2022-10-15T14:37:26.327Z,22.67
2022-10-15T14:42:58.149Z,22.65
2022-10-15T14:48:29.756Z,22.65
2022-10-15T14:54:01.653Z,22.80
2022-10-15T14:59:33.644Z,23.02
2022-10-15T15:05:05.682Z,23.14
2022-10-15T15:10:38.372Z,23.10
2022-10-15T15:16:09.940Z,22.95
2022-10-15T15:21:41.751Z,22.83
2022-10-15T15:27:13.399Z,22.65
2022-10-15T15:32:45.286Z,22.58
2022-10-15T15:38:17.117Z,22.50
2022-10-15T15:43:48.804Z,22.45
2022-10-15T15:49:20.611Z,22.40
2022-10-15T15:54:52.354Z,22.40
2022-10-15T16:00:24.103Z,22.38
2022-10-15T16:05:56.060Z,22.38
2022-10-15T16:11:27.762Z,22.34
2022-10-15T16:16:59.876Z,22.34
2022-10-15T16:22:31.717Z,22.30
2022-10-15T16:28:03.368Z,22.24
2022-10-15T16:33:35.158Z,22.19
2022-10-15T16:39:06.828Z,22.14
2022-10-15T16:44:38.837Z,22.13
2022-10-15T16:50:10.754Z,22.10
2022-10-15T16:55:42.440Z,22.06
2022-10-15T17:01:13.972Z,21.96
2022-10-15T17:12:15.349Z,21.24
2022-10-15T17:17:47.222Z,20.88
2022-10-15T17:23:18.964Z,20.74
2022-10-15T17:28:50.828Z,20.50
2022-10-15T17:34:22.722Z,20.40
2022-10-15T17:39:54.754Z,20.21
2022-10-15T17:45:26.355Z,20.12
2022-10-15T17:50:58.140Z,19.95
2022-10-15T18:02:00.351Z,19.75
2022-10-15T18:07:31.111Z,19.65
2022-10-15T18:13:03.742Z,19.61
2022-10-15T18:18:35.383Z,19.59
2022-10-15T18:24:07.241Z,19.55
2022-10-15T18:29:39.132Z,19.54
2022-10-15T18:35:11.137Z,19.52
2022-10-15T18:40:42.802Z,19.54
2022-10-15T18:46:14.531Z,19.52
2022-10-15T18:51:46.884Z,19.51
2022-10-15T18:57:18.970Z,19.51
2022-10-15T19:02:50.759Z,19.51
2022-10-15T19:08:22.435Z,19.50
2022-10-15T19:13:54.006Z,19.44
2022-10-15T19:19:25.650Z,19.38
2022-10-15T19:24:57.435Z,19.27
2022-10-15T19:30:29.357Z,19.19
2022-10-15T19:36:00.943Z,19.03
2022-10-15T19:41:32.732Z,18.95
2022-10-15T19:47:04.665Z,18.82
2022-10-15T19:52:36.546Z,18.76
2022-10-15T19:58:08.001Z,18.67
2022-10-15T20:03:39.686Z,18.65
2022-10-15T20:09:11.580Z,18.65
2022-10-15T20:14:43.282Z,18.67
2022-10-15T20:20:15.282Z,18.72
2022-10-15T20:25:48.190Z,18.71
2022-10-15T20:31:20.228Z,18.71
2022-10-15T20:36:51.870Z,18.69
2022-10-15T20:53:29.122Z,18.58
2022-10-15T20:59:00.778Z,18.57
2022-10-15T21:10:02.204Z,18.41
2022-10-15T21:15:33.892Z,18.35
2022-10-15T21:26:38.601Z,18.27
2022-10-15T21:32:10.376Z,18.23
2022-10-15T21:37:42.019Z,18.19
2022-10-15T21:48:45.662Z,17.99
2022-10-15T21:54:17.326Z,17.92
2022-10-15T21:59:48.900Z,17.74
2022-10-15T22:05:20.810Z,17.68
2022-10-15T22:10:52.527Z,17.51
2022-10-15T22:16:24.437Z,17.45
2022-10-15T22:21:56.144Z,17.37
2022-10-15T22:27:27.966Z,17.37
2022-10-15T22:32:59.722Z,17.34
2022-10-15T22:38:31.485Z,17.29
2022-10-15T22:44:03.321Z,17.20
2022-10-15T22:49:35.323Z,17.17
2022-10-15T22:55:06.868Z,17.12
2022-10-15T23:00:38.618Z,17.06
2022-10-15T23:06:10.423Z,16.95
2022-10-15T23:11:42.066Z,16.89
2022-10-15T23:17:13.918Z,16.78
2022-10-15T23:22:45.878Z,16.69
2022-10-15T23:28:17.992Z,16.54
2022-10-15T23:33:49.888Z,16.44
2022-10-15T23:39:21.626Z,16.31
2022-10-15T23:44:53.272Z,16.27
2022-10-15T23:50:25.147Z,16.16
2022-10-15T23:55:57.171Z,16.09
